createdAt,value
2023-04-02T00:01:59.998Z,1.6
2023-04-02T00:05:00.074Z,3
2023-04-02T00:07:59.903Z,1.1
2023-04-02T00:10:59.998Z,1.75
2023-04-02T00:13:59.987Z,1.85
2023-04-02T00:17:00.032Z,1.95
2023-04-02T00:20:00.126Z,1.45
2023-04-02T00:23:00.120Z,1.9
2023-04-02T00:26:00.012Z,2.25
2023-04-02T00:29:00.042Z,1.65
2023-04-02T00:32:00.262Z,1.45
2023-04-02T00:35:00.153Z,2.15
2023-04-02T00:37:59.933Z,1.55
2023-04-02T00:40:59.974Z,2.15
2023-04-02T00:44:00.023Z,2.3
2023-04-02T00:47:00.112Z,0.95
2023-04-02T00:50:00.091Z,2.15
2023-04-02T00:53:00.016Z,1.85
2023-04-02T00:56:00.009Z,2.4
2023-04-02T00:59:00.039Z,1.85
2023-04-02T01:02:00.105Z,2.1
2023-04-02T01:05:00.185Z,1.7
2023-04-02T01:08:00.062Z,2.65
2023-04-02T01:10:59.979Z,2.5
2023-04-02T01:14:00.129Z,2
2023-04-02T01:17:00.048Z,2.45
2023-04-02T01:20:00.187Z,2.2
2023-04-02T01:23:00.133Z,2.35
2023-04-02T01:26:00.003Z,3.5
2023-04-02T01:29:00.114Z,2.1
2023-04-02T01:32:00.126Z,4.1
2023-04-02T01:35:00.083Z,3.25
2023-04-02T01:38:00.122Z,2.75
2023-04-02T01:41:00.150Z,2.8
2023-04-02T01:44:00.039Z,1.95
2023-04-02T01:47:00.101Z,2.2
2023-04-02T01:50:00.075Z,3.2
2023-04-02T01:53:00.177Z,2.5
2023-04-02T01:56:00.126Z,2.3
2023-04-02T01:59:00.125Z,1.7
2023-04-02T02:02:00.201Z,3.15
2023-04-02T02:05:00.107Z,2.1
2023-04-02T02:08:00.146Z,2.3
2023-04-02T02:11:00.192Z,1.7
2023-04-02T02:14:00.040Z,2
2023-04-02T02:17:00.186Z,1.55
2023-04-02T02:20:00.146Z,1.7
2023-04-02T02:23:00.205Z,1.4
2023-04-02T02:26:00.137Z,1.55
2023-04-02T02:29:00.173Z,1.1
2023-04-02T02:32:00.191Z,1.1
2023-04-02T02:35:00.063Z,1.8
2023-04-02T02:38:00.115Z,1.2
2023-04-02T02:41:00.133Z,1.2
2023-04-02T02:44:00.203Z,1.15
2023-04-02T02:47:00.168Z,1.6
2023-04-02T02:50:00.264Z,2.3
2023-04-02T02:53:00.111Z,1.8
2023-04-02T02:56:00.158Z,2.5
2023-04-02T02:59:00.110Z,2.5
2023-04-02T03:02:00.163Z,2.15
2023-04-02T03:05:00.064Z,1.7
2023-04-02T03:08:00.232Z,1.75
2023-04-02T03:11:00.122Z,1.85
2023-04-02T03:14:00.223Z,1.95
2023-04-02T03:17:00.237Z,2.15
2023-04-02T03:20:00.179Z,1.55
2023-04-02T03:23:00.226Z,1.75
2023-04-02T03:26:00.155Z,1.9
2023-04-02T03:29:00.264Z,1.7
2023-04-02T03:32:00.117Z,1.55
2023-04-02T03:35:00.173Z,1.1
2023-04-02T03:38:00.101Z,0.8
2023-04-02T03:41:00.245Z,0.9
2023-04-02T03:44:00.265Z,1.45
2023-04-02T03:47:00.179Z,1.55
2023-04-02T03:50:00.176Z,1.2
2023-04-02T03:53:00.123Z,1.9
2023-04-02T03:56:00.306Z,0.9
2023-04-02T03:59:00.250Z,1.2
2023-04-02T04:02:00.550Z,1.1
2023-04-02T04:05:00.223Z,0.75
2023-04-02T04:08:00.175Z,1.1
2023-04-02T04:11:00.233Z,0.75
2023-04-02T04:14:00.233Z,1.55
2023-04-02T04:17:00.445Z,0.85
2023-04-02T04:20:03.487Z,1.85
2023-04-02T04:23:00.159Z,1.2
2023-04-02T04:26:00.140Z,1
2023-04-02T04:29:00.218Z,1.7
2023-04-02T04:32:00.406Z,1.4
2023-04-02T04:35:00.210Z,0.9
2023-04-02T04:38:00.221Z,1.45
2023-04-02T04:41:00.334Z,0.8
2023-04-02T04:44:00.254Z,2
2023-04-02T04:47:00.294Z,2.25
2023-04-02T04:50:00.221Z,1.05
2023-04-02T04:53:00.162Z,1.3
2023-04-02T04:56:16.373Z,1.4
2023-04-02T04:59:00.185Z,0.75
2023-04-02T05:02:00.155Z,0.95
2023-04-02T05:05:00.642Z,0.8
2023-04-02T05:08:01.193Z,1.25
2023-04-02T05:11:00.330Z,0.6
2023-04-02T05:14:00.253Z,1
2023-04-02T05:17:00.274Z,1.3
2023-04-02T05:20:00.279Z,0.9
2023-04-02T05:23:00.273Z,0.95
2023-04-02T05:26:00.264Z,1.05
2023-04-02T05:29:00.353Z,0.95
2023-04-02T05:32:00.243Z,0.8
2023-04-02T05:35:00.272Z,0.6
2023-04-02T05:38:00.242Z,1.05
2023-04-02T05:41:00.215Z,1.5
2023-04-02T05:44:00.212Z,1.55
2023-04-02T05:47:00.367Z,1.55
2023-04-02T05:50:00.291Z,1.45
2023-04-02T05:53:00.346Z,1.8
2023-04-02T05:56:00.311Z,1.75
2023-04-02T05:59:00.355Z,1.5
2023-04-02T06:02:00.395Z,1.35
2023-04-02T06:05:00.394Z,1.15
2023-04-02T06:08:00.343Z,1.25
2023-04-02T06:11:00.237Z,1.3
2023-04-02T06:14:00.353Z,0.7
2023-04-02T06:17:00.400Z,0.85
2023-04-02T06:20:00.405Z,1.15
2023-04-02T06:23:00.329Z,0.6
2023-04-02T06:26:00.257Z,0.85
2023-04-02T06:29:00.226Z,1
2023-04-02T06:32:00.345Z,1.3
2023-04-02T06:35:00.312Z,0.9
2023-04-02T06:38:00.440Z,1.05
2023-04-02T06:41:00.340Z,1.65
2023-04-02T06:44:01.476Z,0.7
2023-04-02T06:47:00.395Z,1.3
2023-04-02T06:50:00.382Z,2.45
2023-04-02T06:53:00.483Z,0.95
2023-04-02T06:56:00.301Z,0.95
2023-04-02T06:59:00.372Z,1.65
2023-04-02T07:02:00.480Z,1.25
2023-04-02T07:05:00.501Z,1.15
2023-04-02T07:08:00.428Z,0.9
2023-04-02T07:11:00.351Z,0.8
2023-04-02T07:14:00.445Z,1.3
2023-04-02T07:17:00.469Z,0.7
2023-04-02T07:20:00.273Z,1.45
2023-04-02T07:23:00.445Z,1.15
2023-04-02T07:26:00.387Z,1.4
2023-04-02T07:29:00.368Z,1.1
2023-04-02T07:32:00.349Z,0.55
2023-04-02T07:35:00.374Z,1.3
2023-04-02T07:38:00.459Z,1.35
2023-04-02T07:41:00.424Z,1.25
2023-04-02T07:44:00.499Z,1.2
2023-04-02T07:47:00.418Z,1
2023-04-02T07:50:00.360Z,1
2023-04-02T07:53:00.872Z,1.1
2023-04-02T07:56:00.400Z,0.85
2023-04-02T07:59:00.382Z,1
2023-04-02T08:02:00.533Z,0.8
2023-04-02T08:05:00.367Z,1.6
2023-04-02T08:08:00.433Z,1.05
2023-04-02T08:11:00.450Z,1
2023-04-02T08:14:00.430Z,1.2
2023-04-02T08:17:00.543Z,0.95
2023-04-02T08:20:00.465Z,1.8
2023-04-02T08:23:00.478Z,0.9
2023-04-02T08:26:00.418Z,1.45
2023-04-02T08:29:00.540Z,1.05
2023-04-02T08:32:00.472Z,1.45
2023-04-02T08:35:00.364Z,1.05
2023-04-02T08:38:00.477Z,1.2
2023-04-02T08:41:00.380Z,1.1
2023-04-02T08:44:00.527Z,0.9
2023-04-02T08:47:00.347Z,1.05
2023-04-02T08:50:00.449Z,1.35
2023-04-02T08:53:00.394Z,1.65
2023-04-02T08:56:00.415Z,0.85
2023-04-02T08:59:00.447Z,1.4
2023-04-02T09:02:00.545Z,0.7
2023-04-02T09:05:00.655Z,0.95
2023-04-02T09:08:00.380Z,0.9
2023-04-02T09:11:00.427Z,1.25
2023-04-02T09:14:00.482Z,1.85
2023-04-02T09:17:00.493Z,1.8
2023-04-02T09:20:00.601Z,1.4
2023-04-02T09:23:00.536Z,1.15
2023-04-02T09:26:05.416Z,1.25
2023-04-02T09:29:00.452Z,1.4
2023-04-02T09:32:00.826Z,1.25
2023-04-02T09:35:00.506Z,0.85
2023-04-02T09:38:00.800Z,1.35
2023-04-02T09:41:00.544Z,1.05
2023-04-02T09:44:00.588Z,1.15
2023-04-02T09:47:00.661Z,1.2
2023-04-02T09:50:00.594Z,1.5
2023-04-02T09:53:00.646Z,0.9
2023-04-02T09:56:00.441Z,1.15
2023-04-02T09:59:00.601Z,1.05
2023-04-02T10:02:00.498Z,1.1
2023-04-02T10:05:00.458Z,1.1
2023-04-02T10:08:00.458Z,1.55
2023-04-02T10:11:00.543Z,1.55
2023-04-02T10:14:00.633Z,1.2
2023-04-02T10:17:00.596Z,1.4
2023-04-02T10:20:00.603Z,1.45
2023-04-02T10:23:00.425Z,1.3
2023-04-02T10:26:00.693Z,1.35
2023-04-02T10:29:00.697Z,1.6
2023-04-02T10:32:00.650Z,1.3
2023-04-02T10:35:00.576Z,1.15
2023-04-02T10:38:00.591Z,1.55
2023-04-02T10:41:00.716Z,2
2023-04-02T10:44:12.967Z,1.75
2023-04-02T10:47:00.699Z,1.95
2023-04-02T10:50:00.537Z,1.9
2023-04-02T10:53:00.586Z,1.65
2023-04-02T10:56:00.577Z,1.4
2023-04-02T10:59:00.610Z,1.6
2023-04-02T11:02:00.744Z,1.1
2023-04-02T11:05:03.249Z,1.65
2023-04-02T11:08:00.670Z,1.4
2023-04-02T11:11:01.094Z,1.75
2023-04-02T11:14:00.576Z,1.8
2023-04-02T11:17:00.560Z,1.15
2023-04-02T11:20:00.866Z,1.5
2023-04-02T11:23:00.942Z,1.5
2023-04-02T11:26:00.610Z,1.35
2023-04-02T11:29:00.664Z,1.85
2023-04-02T11:32:00.547Z,2.5
2023-04-02T11:35:07.376Z,1.8
2023-04-02T11:38:00.668Z,1.25
2023-04-02T11:41:00.589Z,1.4
2023-04-02T11:44:00.597Z,1.8
2023-04-02T11:49:55.754Z,1.95
2023-04-02T11:52:53.004Z,1.4
2023-04-02T11:55:52.901Z,1.75
2023-04-02T11:58:53.037Z,1.4
2023-04-02T12:01:53.062Z,2.3
2023-04-02T12:04:53.004Z,1.2
2023-04-02T12:07:53.188Z,1.65
2023-04-02T12:10:52.972Z,1.35
2023-04-02T12:13:53.015Z,1.65
2023-04-02T12:17:55.952Z,2
2023-04-02T12:20:53.384Z,2
2023-04-02T12:23:53.396Z,1.85
2023-04-02T12:26:53.516Z,1.6
2023-04-02T12:29:53.504Z,1.75
2023-04-02T12:32:53.425Z,1.6
2023-04-02T12:35:53.621Z,2.1
2023-04-02T12:38:53.591Z,2.6
2023-04-02T12:41:53.524Z,1.9
2023-04-02T12:44:53.610Z,2.55
2023-04-02T12:47:53.660Z,1.9
2023-04-02T12:50:53.512Z,1.75
2023-04-02T12:53:53.392Z,2.5
2023-04-02T12:56:57.748Z,1.9
2023-04-02T12:59:53.436Z,1.85
2023-04-02T13:02:53.520Z,2.2
2023-04-02T13:05:53.580Z,1.8
2023-04-02T13:08:53.401Z,2.9
2023-04-02T13:11:53.417Z,3.25
2023-04-02T13:14:53.474Z,2.15
2023-04-02T13:17:53.498Z,2.9
2023-04-02T13:20:53.413Z,2.85
2023-04-02T13:23:53.514Z,1.9
2023-04-02T13:26:53.437Z,3.3
2023-04-02T13:29:53.457Z,1.9
2023-04-02T13:32:53.451Z,1.95
2023-04-02T13:35:53.600Z,2.6
2023-04-02T13:38:53.417Z,2.75
2023-04-02T13:41:53.341Z,2.85
2023-04-02T13:44:53.399Z,1.45
2023-04-02T13:47:53.600Z,3.25
2023-04-02T13:50:53.514Z,3.2
2023-04-02T13:53:53.476Z,2.2
2023-04-02T13:56:53.467Z,2
2023-04-02T13:59:53.490Z,1.25
2023-04-02T14:02:53.471Z,2.15
2023-04-02T14:05:53.461Z,1.95
2023-04-02T14:08:53.480Z,2.8
2023-04-02T14:11:53.517Z,2.45
2023-04-02T14:14:53.568Z,2.15
2023-04-02T14:17:53.541Z,2.7
2023-04-02T14:20:53.444Z,2.15
2023-04-02T14:23:53.473Z,2.5
2023-04-02T14:26:53.469Z,2.5
2023-04-02T14:29:53.558Z,2.45
2023-04-02T14:32:53.471Z,2.55
2023-04-02T14:35:53.585Z,2
2023-04-02T14:38:53.529Z,2.1
2023-04-02T14:41:53.545Z,1.5
2023-04-02T14:44:53.587Z,1.65
2023-04-02T14:47:53.664Z,1.6
2023-04-02T14:50:53.479Z,2.2
2023-04-02T14:53:53.534Z,1.4
2023-04-02T14:56:53.724Z,2.4
2023-04-02T14:59:53.520Z,1.85
2023-04-02T15:02:53.678Z,1.65
2023-04-02T15:05:53.643Z,2.1
2023-04-02T15:09:06.512Z,2.9
2023-04-02T15:11:53.680Z,2.4
2023-04-02T15:14:53.486Z,1.45
2023-04-02T15:17:53.667Z,2.4
2023-04-02T15:20:53.594Z,1.85
2023-04-02T15:23:53.627Z,1.75
2023-04-02T15:26:53.637Z,1.6
2023-04-02T15:29:53.612Z,3.05
2023-04-02T15:32:53.723Z,1.3
2023-04-02T15:35:53.696Z,1.25
2023-04-02T15:38:53.577Z,3.1
2023-04-02T15:41:53.459Z,2.35
2023-04-02T15:44:53.524Z,1.95
2023-04-02T15:47:53.876Z,2.85
2023-04-02T15:50:53.641Z,2.6
2023-04-02T15:53:53.612Z,2.4
2023-04-02T15:56:53.577Z,2.55
2023-04-02T15:59:53.839Z,1.85
2023-04-02T16:02:53.904Z,2.1
2023-04-02T16:05:53.680Z,1.85
2023-04-02T16:08:53.602Z,2.1
2023-04-02T16:11:53.746Z,1.85
2023-04-02T16:14:53.569Z,1.65
2023-04-02T16:17:53.734Z,3.1
2023-04-02T16:20:53.793Z,2.7
2023-04-02T16:23:53.801Z,2.9
2023-04-02T16:26:53.629Z,2.25
2023-04-02T16:29:55.915Z,1.65
2023-04-02T16:32:53.840Z,1.95
2023-04-02T16:35:54.064Z,2.6
2023-04-02T16:38:54.004Z,1.85
2023-04-02T16:41:53.627Z,1.2
2023-04-02T16:44:53.592Z,0.8
2023-04-02T16:47:53.709Z,2.3
2023-04-02T16:50:53.704Z,2.65
2023-04-02T16:54:01.820Z,1.7
2023-04-02T16:56:53.876Z,2.6
2023-04-02T16:59:53.699Z,2.7
2023-04-02T17:02:53.892Z,3.25
2023-04-02T17:05:53.710Z,2
2023-04-02T17:08:53.636Z,2.25
2023-04-02T17:11:53.619Z,2.05
2023-04-02T17:14:53.649Z,2.55
2023-04-02T17:17:53.678Z,2
2023-04-02T17:20:53.848Z,3.15
2023-04-02T17:23:57.819Z,3.65
2023-04-02T17:26:53.628Z,3.45
2023-04-02T17:29:53.789Z,3.45
2023-04-02T17:32:53.757Z,2.65
2023-04-02T17:35:53.684Z,2.85
2023-04-02T17:38:53.729Z,1.75
2023-04-02T17:41:53.684Z,2.2
2023-04-02T17:44:53.739Z,1
2023-04-02T17:47:53.746Z,1.7
2023-04-02T17:50:53.781Z,1.65
2023-04-02T17:53:53.792Z,1.4
2023-04-02T17:56:53.796Z,1.85
2023-04-02T17:59:53.647Z,2.55
2023-04-02T18:02:54.013Z,2.05
2023-04-02T18:05:53.755Z,2.05
2023-04-02T18:08:53.789Z,1.95
2023-04-02T18:11:53.838Z,2.4
2023-04-02T18:14:53.830Z,2.4
2023-04-02T18:17:54.109Z,2.6
2023-04-02T18:20:53.605Z,2.65
2023-04-02T18:23:53.687Z,2.7
2023-04-02T18:26:53.668Z,2.7
2023-04-02T18:29:53.685Z,2.35
2023-04-02T18:32:53.840Z,1.9
2023-04-02T18:35:53.957Z,2
2023-04-02T18:38:53.745Z,1.9
2023-04-02T18:41:53.834Z,2.7
2023-04-02T18:44:53.647Z,1.55
2023-04-02T18:47:53.859Z,2.25
2023-04-02T18:50:56.425Z,1.25
2023-04-02T18:53:55.579Z,1.55
2023-04-02T18:56:53.850Z,2.8
2023-04-02T18:59:53.638Z,1.6
2023-04-02T19:02:53.964Z,1.35
2023-04-02T19:05:53.624Z,1
2023-04-02T19:08:53.811Z,1.45
2023-04-02T19:11:53.935Z,1.5
2023-04-02T19:14:53.940Z,0.9
2023-04-02T19:17:54.122Z,1.55
2023-04-02T19:20:53.926Z,1.45
2023-04-02T19:23:53.844Z,0.85
2023-04-02T19:26:53.793Z,0.8
2023-04-02T19:29:56.939Z,1.8
2023-04-02T19:32:54.013Z,1.25
2023-04-02T19:35:53.886Z,1.35
2023-04-02T19:38:53.850Z,1.1
2023-04-02T19:41:53.698Z,1.3
2023-04-02T19:44:53.853Z,1.85
2023-04-02T19:47:54.219Z,0.75
2023-04-02T19:50:53.697Z,0.75
2023-04-02T19:53:54.016Z,0.9
2023-04-02T19:56:53.968Z,0.65
2023-04-02T19:59:53.689Z,0.8
2023-04-02T20:02:54.087Z,0.8
2023-04-02T20:05:53.701Z,0.6
2023-04-02T20:08:54.123Z,1.3
2023-04-02T20:11:53.919Z,2.6
2023-04-02T20:14:53.712Z,1.5
2023-04-02T20:17:53.976Z,1.15
2023-04-02T20:20:53.895Z,0.65
2023-04-02T20:23:53.814Z,1.2
2023-04-02T20:26:53.733Z,0.6
2023-04-02T20:29:53.858Z,0.65
2023-04-02T20:32:54.140Z,0.15
2023-04-02T20:35:54.009Z,0.65
2023-04-02T20:38:53.923Z,0.15
2023-04-02T20:41:53.887Z,0.25
2023-04-02T20:44:53.943Z,0.9
2023-04-02T20:47:54.236Z,1.75
2023-04-02T20:50:53.901Z,1.85
2023-04-02T20:53:54.126Z,1.7
2023-04-02T20:56:54.152Z,1.35
2023-04-02T20:59:53.897Z,0.6
2023-04-02T21:02:53.952Z,1
2023-04-02T21:05:53.961Z,1
2023-04-02T21:08:54.232Z,0.95
2023-04-02T21:11:53.941Z,0.5
2023-04-02T21:14:53.896Z,1.2
2023-04-02T21:17:54.206Z,0.65
2023-04-02T21:20:53.778Z,1.05
2023-04-02T21:23:53.926Z,1.4
2023-04-02T21:26:53.926Z,0.45
2023-04-02T21:29:53.971Z,1.8
2023-04-02T21:32:54.188Z,0.6
2023-04-02T21:35:54.001Z,0.8
2023-04-02T21:38:53.985Z,0.7
2023-04-02T21:41:54.036Z,1
2023-04-02T21:44:53.880Z,0.85
2023-04-02T21:47:54.107Z,0.8
2023-04-02T21:50:53.778Z,1.05
2023-04-02T21:53:53.950Z,1.15
2023-04-02T21:56:54.255Z,0.95
2023-04-02T21:59:54.057Z,1.15
2023-04-02T22:02:54.026Z,0.75
2023-04-02T22:05:53.895Z,0.5
2023-04-02T22:08:53.956Z,0.8
2023-04-02T22:11:53.962Z,0.8
2023-04-02T22:14:54.060Z,0.65
2023-04-02T22:17:54.078Z,1.9
2023-04-02T22:20:53.928Z,1
2023-04-02T22:23:53.831Z,0.55
2023-04-02T22:26:53.965Z,0.6
2023-04-02T22:29:53.986Z,0.6
2023-04-02T22:32:54.077Z,1.55
2023-04-02T22:35:54.108Z,1.45
2023-04-02T22:38:53.942Z,0.85
2023-04-02T22:41:54.034Z,0.9
2023-04-02T22:44:53.813Z,0.9
2023-04-02T22:47:53.959Z,1.45
2023-04-02T22:50:53.990Z,2.5
2023-04-02T22:53:53.979Z,0.8
2023-04-02T22:56:54.023Z,0.8
2023-04-02T22:59:54.153Z,1
2023-04-02T23:02:54.256Z,0.8
2023-04-02T23:05:54.008Z,0.95
2023-04-02T23:08:54.017Z,0.9
2023-04-02T23:11:53.933Z,1.05
2023-04-02T23:14:53.906Z,1.2
2023-04-02T23:17:54.399Z,1
2023-04-02T23:20:54.025Z,0.7
2023-04-02T23:23:54.008Z,1.7
2023-04-02T23:26:54.057Z,1.2
2023-04-02T23:29:54.038Z,1
2023-04-02T23:32:54.152Z,1.35
2023-04-02T23:35:54.241Z,1
2023-04-02T23:38:54.020Z,0.7
2023-04-02T23:41:53.885Z,1
2023-04-02T23:44:53.963Z,0.9
2023-04-02T23:47:54.146Z,0.6
2023-04-02T23:50:54.025Z,0.8
2023-04-02T23:53:53.887Z,1.05
2023-04-02T23:56:54.148Z,1
2023-04-02T23:59:54.142Z,1.2
